sensor_id;sensor_type;location;lat;lon;timestamp;P1;durP1;ratioP1;P2;durP2;ratioP2
5795;SDS011;2924;51.458;7.046;2023-03-18T00:01:03;7.60;;;1.50;;
5795;SDS011;2924;51.458;7.046;2023-03-18T00:03:31;7.50;;;2.07;;
5795;SDS011;2924;51.458;7.046;2023-03-18T00:06:31;3.63;;;2.20;;
5795;SDS011;2924;51.458;7.046;2023-03-18T00:08:51;6.47;;;2.00;;
5795;SDS011;2924;51.458;7.046;2023-03-18T00:11:17;3.60;;;1.90;;
5795;SDS011;2924;51.458;7.046;2023-03-18T00:13:45;6.30;;;1.80;;
5795;SDS011;2924;51.458;7.046;2023-03-18T00:16:12;6.23;;;2.33;;
5795;SDS011;2924;51.458;7.046;2023-03-18T00:18:39;6.23;;;2.00;;
5795;SDS011;2924;51.458;7.046;2023-03-18T00:21:05;4.73;;;2.00;;
5795;SDS011;2924;51.458;7.046;2023-03-18T00:23:32;5.93;;;2.20;;
5795;SDS011;2924;51.458;7.046;2023-03-18T00:25:58;6.20;;;2.23;;
5795;SDS011;2924;51.458;7.046;2023-03-18T00:28:25;4.30;;;1.93;;
5795;SDS011;2924;51.458;7.046;2023-03-18T00:30:52;10.43;;;1.93;;
5795;SDS011;2924;51.458;7.046;2023-03-18T00:33:20;7.87;;;2.43;;
5795;SDS011;2924;51.458;7.046;2023-03-18T00:35:46;8.57;;;2.13;;
5795;SDS011;2924;51.458;7.046;2023-03-18T00:38:12;9.63;;;2.67;;
5795;SDS011;2924;51.458;7.046;2023-03-18T00:40:48;5.30;;;2.90;;
5795;SDS011;2924;51.458;7.046;2023-03-18T00:43:25;7.40;;;2.27;;
5795;SDS011;2924;51.458;7.046;2023-03-18T00:45:54;9.60;;;2.57;;
5795;SDS011;2924;51.458;7.046;2023-03-18T00:48:21;4.90;;;2.63;;
5795;SDS011;2924;51.458;7.046;2023-03-18T00:50:48;1.60;;;1.13;;
5795;SDS011;2924;51.458;7.046;2023-03-18T00:53:14;7.20;;;1.73;;
5795;SDS011;2924;51.458;7.046;2023-03-18T00:55:41;3.97;;;2.00;;
5795;SDS011;2924;51.458;7.046;2023-03-18T00:58:07;5.27;;;2.23;;
5795;SDS011;2924;51.458;7.046;2023-03-18T01:00:34;4.50;;;1.87;;
5795;SDS011;2924;51.458;7.046;2023-03-18T01:03:01;6.80;;;2.53;;
5795;SDS011;2924;51.458;7.046;2023-03-18T01:05:28;4.37;;;2.20;;
5795;SDS011;2924;51.458;7.046;2023-03-18T01:07:55;3.83;;;2.07;;
5795;SDS011;2924;51.458;7.046;2023-03-18T01:10:22;6.83;;;2.30;;
5795;SDS011;2924;51.458;7.046;2023-03-18T01:12:49;7.40;;;2.20;;
5795;SDS011;2924;51.458;7.046;2023-03-18T01:15:15;12.83;;;2.30;;
5795;SDS011;2924;51.458;7.046;2023-03-18T01:17:42;9.53;;;2.33;;
5795;SDS011;2924;51.458;7.046;2023-03-18T01:20:10;6.93;;;2.67;;
5795;SDS011;2924;51.458;7.046;2023-03-18T01:22:38;9.20;;;2.30;;
5795;SDS011;2924;51.458;7.046;2023-03-18T01:25:07;4.40;;;2.07;;
5795;SDS011;2924;51.458;7.046;2023-03-18T01:27:34;9.23;;;2.20;;
5795;SDS011;2924;51.458;7.046;2023-03-18T01:30:01;9.13;;;2.90;;
5795;SDS011;2924;51.458;7.046;2023-03-18T01:32:27;9.20;;;2.60;;
5795;SDS011;2924;51.458;7.046;2023-03-18T01:34:53;9.20;;;2.67;;
5795;SDS011;2924;51.458;7.046;2023-03-18T01:37:19;11.13;;;3.30;;
5795;SDS011;2924;51.458;7.046;2023-03-18T01:39:45;7.73;;;2.90;;
5795;SDS011;2924;51.458;7.046;2023-03-18T01:42:11;8.67;;;2.50;;
5795;SDS011;2924;51.458;7.046;2023-03-18T01:44:38;5.87;;;2.70;;
5795;SDS011;2924;51.458;7.046;2023-03-18T01:47:04;5.17;;;2.37;;
5795;SDS011;2924;51.458;7.046;2023-03-18T01:49:31;10.83;;;3.40;;
5795;SDS011;2924;51.458;7.046;2023-03-18T01:52:26;5.20;;;2.20;;
5795;SDS011;2924;51.458;7.046;2023-03-18T01:54:57;6.00;;;2.70;;
5795;SDS011;2924;51.458;7.046;2023-03-18T01:57:25;3.90;;;2.17;;
5795;SDS011;2924;51.458;7.046;2023-03-18T01:59:52;4.93;;;2.20;;
5795;SDS011;2924;51.458;7.046;2023-03-18T02:02:19;7.80;;;3.00;;
5795;SDS011;2924;51.458;7.046;2023-03-18T02:04:52;14.23;;;3.07;;
5795;SDS011;2924;51.458;7.046;2023-03-18T02:09:58;8.93;;;2.30;;
5795;SDS011;2924;51.458;7.046;2023-03-18T02:12:28;13.60;;;2.23;;
5795;SDS011;2924;51.458;7.046;2023-03-18T02:14:57;7.10;;;2.80;;
5795;SDS011;2924;51.458;7.046;2023-03-18T02:17:27;7.77;;;2.23;;
5795;SDS011;2924;51.458;7.046;2023-03-18T02:22:40;5.33;;;2.67;;
5795;SDS011;2924;51.458;7.046;2023-03-18T02:28:05;6.73;;;2.30;;
5795;SDS011;2924;51.458;7.046;2023-03-18T02:30:35;5.03;;;1.90;;
5795;SDS011;2924;51.458;7.046;2023-03-18T02:33:08;5.00;;;2.30;;
5795;SDS011;2924;51.458;7.046;2023-03-18T02:35:35;3.90;;;1.90;;
5795;SDS011;2924;51.458;7.046;2023-03-18T02:38:02;5.97;;;2.17;;
5795;SDS011;2924;51.458;7.046;2023-03-18T02:40:30;5.43;;;2.47;;
5795;SDS011;2924;51.458;7.046;2023-03-18T02:48:22;6.30;;;2.00;;
5795;SDS011;2924;51.458;7.046;2023-03-18T02:50:52;5.30;;;2.70;;
5795;SDS011;2924;51.458;7.046;2023-03-18T02:53:19;7.93;;;2.30;;
5795;SDS011;2924;51.458;7.046;2023-03-18T02:55:44;6.63;;;2.73;;
5795;SDS011;2924;51.458;7.046;2023-03-18T02:58:11;7.20;;;2.90;;
5795;SDS011;2924;51.458;7.046;2023-03-18T03:00:36;5.53;;;2.27;;
5795;SDS011;2924;51.458;7.046;2023-03-18T03:03:02;3.90;;;2.40;;
5795;SDS011;2924;51.458;7.046;2023-03-18T03:05:29;7.00;;;2.30;;
5795;SDS011;2924;51.458;7.046;2023-03-18T03:07:55;4.53;;;2.33;;
5795;SDS011;2924;51.458;7.046;2023-03-18T03:10:21;6.60;;;2.50;;
5795;SDS011;2924;51.458;7.046;2023-03-18T03:12:46;7.70;;;2.70;;
5795;SDS011;2924;51.458;7.046;2023-03-18T03:15:13;5.60;;;2.73;;
5795;SDS011;2924;51.458;7.046;2023-03-18T03:17:39;7.83;;;2.33;;
5795;SDS011;2924;51.458;7.046;2023-03-18T03:20:06;5.87;;;2.80;;
5795;SDS011;2924;51.458;7.046;2023-03-18T03:22:33;3.90;;;2.97;;
5795;SDS011;2924;51.458;7.046;2023-03-18T03:24:59;6.17;;;3.07;;
5795;SDS011;2924;51.458;7.046;2023-03-18T03:27:26;3.87;;;2.10;;
5795;SDS011;2924;51.458;7.046;2023-03-18T03:29:52;3.43;;;2.53;;
5795;SDS011;2924;51.458;7.046;2023-03-18T03:32:19;11.00;;;3.00;;
5795;SDS011;2924;51.458;7.046;2023-03-18T03:34:45;5.00;;;2.93;;
5795;SDS011;2924;51.458;7.046;2023-03-18T03:37:11;11.60;;;3.20;;
5795;SDS011;2924;51.458;7.046;2023-03-18T03:39:37;3.63;;;2.47;;
5795;SDS011;2924;51.458;7.046;2023-03-18T03:42:03;4.10;;;2.40;;
5795;SDS011;2924;51.458;7.046;2023-03-18T03:44:29;10.30;;;3.47;;
5795;SDS011;2924;51.458;7.046;2023-03-18T03:46:55;4.40;;;2.87;;
5795;SDS011;2924;51.458;7.046;2023-03-18T03:49:20;9.20;;;3.30;;
5795;SDS011;2924;51.458;7.046;2023-03-18T03:51:46;6.53;;;3.10;;
5795;SDS011;2924;51.458;7.046;2023-03-18T03:54:12;13.17;;;3.10;;
5795;SDS011;2924;51.458;7.046;2023-03-18T03:56:39;7.10;;;2.90;;
5795;SDS011;2924;51.458;7.046;2023-03-18T03:59:05;4.63;;;3.00;;
5795;SDS011;2924;51.458;7.046;2023-03-18T04:01:31;4.57;;;3.27;;
5795;SDS011;2924;51.458;7.046;2023-03-18T04:03:58;5.97;;;3.00;;
5795;SDS011;2924;51.458;7.046;2023-03-18T04:06:26;12.90;;;3.60;;
5795;SDS011;2924;51.458;7.046;2023-03-18T04:08:52;11.13;;;2.80;;
5795;SDS011;2924;51.458;7.046;2023-03-18T04:11:18;6.47;;;3.57;;
5795;SDS011;2924;51.458;7.046;2023-03-18T04:13:44;7.03;;;3.10;;
5795;SDS011;2924;51.458;7.046;2023-03-18T04:16:10;8.70;;;3.33;;
5795;SDS011;2924;51.458;7.046;2023-03-18T04:18:36;11.13;;;3.60;;
5795;SDS011;2924;51.458;7.046;2023-03-18T04:21:02;6.30;;;3.17;;
5795;SDS011;2924;51.458;7.046;2023-03-18T04:23:28;10.00;;;3.50;;
5795;SDS011;2924;51.458;7.046;2023-03-18T04:25:53;5.87;;;3.93;;
5795;SDS011;2924;51.458;7.046;2023-03-18T04:28:19;11.17;;;3.90;;
5795;SDS011;2924;51.458;7.046;2023-03-18T04:30:46;20.17;;;4.10;;
5795;SDS011;2924;51.458;7.046;2023-03-18T04:33:12;8.17;;;3.30;;
5795;SDS011;2924;51.458;7.046;2023-03-18T04:35:38;8.00;;;3.40;;
5795;SDS011;2924;51.458;7.046;2023-03-18T04:38:05;11.60;;;3.60;;
5795;SDS011;2924;51.458;7.046;2023-03-18T04:40:30;9.37;;;4.17;;
5795;SDS011;2924;51.458;7.046;2023-03-18T04:42:56;16.43;;;3.80;;
5795;SDS011;2924;51.458;7.046;2023-03-18T04:45:22;6.13;;;3.80;;
5795;SDS011;2924;51.458;7.046;2023-03-18T04:47:48;6.53;;;3.90;;
5795;SDS011;2924;51.458;7.046;2023-03-18T04:50:14;8.23;;;4.17;;
5795;SDS011;2924;51.458;7.046;2023-03-18T04:52:41;8.17;;;4.10;;
5795;SDS011;2924;51.458;7.046;2023-03-18T04:55:09;10.90;;;4.50;;
5795;SDS011;2924;51.458;7.046;2023-03-18T04:57:35;13.63;;;4.70;;
5795;SDS011;2924;51.458;7.046;2023-03-18T05:00:06;9.07;;;4.03;;
5795;SDS011;2924;51.458;7.046;2023-03-18T05:02:35;7.83;;;5.10;;
5795;SDS011;2924;51.458;7.046;2023-03-18T05:05:01;5.93;;;4.53;;
5795;SDS011;2924;51.458;7.046;2023-03-18T05:07:27;14.03;;;5.37;;
5795;SDS011;2924;51.458;7.046;2023-03-18T05:09:53;8.83;;;5.30;;
5795;SDS011;2924;51.458;7.046;2023-03-18T05:12:19;7.10;;;4.50;;
5795;SDS011;2924;51.458;7.046;2023-03-18T05:14:45;9.70;;;4.70;;
5795;SDS011;2924;51.458;7.046;2023-03-18T05:17:11;6.80;;;4.93;;
5795;SDS011;2924;51.458;7.046;2023-03-18T05:19:44;7.67;;;4.40;;
5795;SDS011;2924;51.458;7.046;2023-03-18T05:22:11;6.93;;;4.37;;
5795;SDS011;2924;51.458;7.046;2023-03-18T05:24:39;11.80;;;5.00;;
5795;SDS011;2924;51.458;7.046;2023-03-18T05:27:05;7.50;;;4.50;;
5795;SDS011;2924;51.458;7.046;2023-03-18T05:29:32;8.33;;;5.10;;
5795;SDS011;2924;51.458;7.046;2023-03-18T05:31:58;9.63;;;5.40;;
5795;SDS011;2924;51.458;7.046;2023-03-18T05:34:24;14.53;;;6.10;;
5795;SDS011;2924;51.458;7.046;2023-03-18T05:36:50;18.73;;;4.77;;
5795;SDS011;2924;51.458;7.046;2023-03-18T05:39:16;8.17;;;4.47;;
5795;SDS011;2924;51.458;7.046;2023-03-18T05:41:41;7.23;;;4.17;;
5795;SDS011;2924;51.458;7.046;2023-03-18T05:44:07;10.93;;;5.17;;
5795;SDS011;2924;51.458;7.046;2023-03-18T05:46:33;16.87;;;4.57;;
5795;SDS011;2924;51.458;7.046;2023-03-18T05:48:59;8.43;;;3.90;;
5795;SDS011;2924;51.458;7.046;2023-03-18T05:51:25;9.70;;;4.50;;
5795;SDS011;2924;51.458;7.046;2023-03-18T05:53:50;14.93;;;5.33;;
5795;SDS011;2924;51.458;7.046;2023-03-18T05:56:16;7.47;;;4.10;;
5795;SDS011;2924;51.458;7.046;2023-03-18T05:58:42;9.53;;;5.27;;
5795;SDS011;2924;51.458;7.046;2023-03-18T06:01:08;5.30;;;4.80;;
5795;SDS011;2924;51.458;7.046;2023-03-18T06:03:35;8.10;;;4.40;;
5795;SDS011;2924;51.458;7.046;2023-03-18T06:06:01;8.73;;;4.33;;
5795;SDS011;2924;51.458;7.046;2023-03-18T06:08:27;12.97;;;4.57;;
5795;SDS011;2924;51.458;7.046;2023-03-18T06:10:52;8.10;;;5.07;;
5795;SDS011;2924;51.458;7.046;2023-03-18T06:13:19;7.47;;;3.83;;
5795;SDS011;2924;51.458;7.046;2023-03-18T06:15:45;10.23;;;4.30;;
5795;SDS011;2924;51.458;7.046;2023-03-18T06:18:11;7.13;;;4.47;;
5795;SDS011;2924;51.458;7.046;2023-03-18T06:20:37;5.27;;;4.77;;
5795;SDS011;2924;51.458;7.046;2023-03-18T06:23:03;7.73;;;3.90;;
5795;SDS011;2924;51.458;7.046;2023-03-18T06:25:29;8.00;;;4.60;;
5795;SDS011;2924;51.458;7.046;2023-03-18T06:27:55;6.33;;;3.73;;
5795;SDS011;2924;51.458;7.046;2023-03-18T06:30:21;8.10;;;4.50;;
5795;SDS011;2924;51.458;7.046;2023-03-18T06:32:47;7.30;;;4.37;;
5795;SDS011;2924;51.458;7.046;2023-03-18T06:35:13;9.40;;;4.63;;
5795;SDS011;2924;51.458;7.046;2023-03-18T06:37:40;7.80;;;4.80;;
5795;SDS011;2924;51.458;7.046;2023-03-18T06:40:07;5.83;;;4.70;;
5795;SDS011;2924;51.458;7.046;2023-03-18T06:42:36;8.83;;;4.60;;
5795;SDS011;2924;51.458;7.046;2023-03-18T06:45:02;5.67;;;4.60;;
5795;SDS011;2924;51.458;7.046;2023-03-18T06:47:28;8.03;;;4.63;;
5795;SDS011;2924;51.458;7.046;2023-03-18T06:49:54;5.00;;;4.27;;
5795;SDS011;2924;51.458;7.046;2023-03-18T06:52:20;4.60;;;3.97;;
5795;SDS011;2924;51.458;7.046;2023-03-18T06:54:47;6.53;;;3.87;;
5795;SDS011;2924;51.458;7.046;2023-03-18T06:57:13;6.57;;;4.70;;
5795;SDS011;2924;51.458;7.046;2023-03-18T06:59:39;6.53;;;4.20;;
5795;SDS011;2924;51.458;7.046;2023-03-18T07:02:04;11.10;;;4.67;;
5795;SDS011;2924;51.458;7.046;2023-03-18T07:04:32;10.97;;;4.33;;
5795;SDS011;2924;51.458;7.046;2023-03-18T07:06:58;6.50;;;4.27;;
5795;SDS011;2924;51.458;7.046;2023-03-18T07:09:24;6.20;;;3.73;;
5795;SDS011;2924;51.458;7.046;2023-03-18T07:11:50;4.40;;;4.00;;
5795;SDS011;2924;51.458;7.046;2023-03-18T07:14:17;6.40;;;3.77;;
5795;SDS011;2924;51.458;7.046;2023-03-18T07:16:43;5.03;;;4.03;;
5795;SDS011;2924;51.458;7.046;2023-03-18T07:19:09;4.70;;;3.53;;
5795;SDS011;2924;51.458;7.046;2023-03-18T07:21:36;8.63;;;4.23;;
5795;SDS011;2924;51.458;7.046;2023-03-18T07:24:02;8.03;;;4.43;;
5795;SDS011;2924;51.458;7.046;2023-03-18T07:26:28;5.57;;;3.77;;
5795;SDS011;2924;51.458;7.046;2023-03-18T07:28:54;5.10;;;3.30;;
5795;SDS011;2924;51.458;7.046;2023-03-18T07:31:19;8.37;;;4.97;;
5795;SDS011;2924;51.458;7.046;2023-03-18T07:33:45;6.03;;;3.83;;
5795;SDS011;2924;51.458;7.046;2023-03-18T07:36:11;5.27;;;3.77;;
5795;SDS011;2924;51.458;7.046;2023-03-18T07:38:37;5.20;;;3.40;;
5795;SDS011;2924;51.458;7.046;2023-03-18T07:41:04;8.80;;;3.93;;
5795;SDS011;2924;51.458;7.046;2023-03-18T07:43:30;5.10;;;3.20;;
5795;SDS011;2924;51.458;7.046;2023-03-18T07:45:55;3.80;;;3.10;;
5795;SDS011;2924;51.458;7.046;2023-03-18T07:48:22;5.87;;;3.50;;
5795;SDS011;2924;51.458;7.046;2023-03-18T07:50:48;6.93;;;3.20;;
5795;SDS011;2924;51.458;7.046;2023-03-18T07:53:14;3.60;;;3.27;;
5795;SDS011;2924;51.458;7.046;2023-03-18T07:55:39;4.23;;;2.90;;
5795;SDS011;2924;51.458;7.046;2023-03-18T07:58:06;4.70;;;2.70;;
5795;SDS011;2924;51.458;7.046;2023-03-18T08:00:32;6.60;;;2.83;;
5795;SDS011;2924;51.458;7.046;2023-03-18T08:02:59;7.30;;;3.10;;
5795;SDS011;2924;51.458;7.046;2023-03-18T08:05:25;5.50;;;2.63;;
5795;SDS011;2924;51.458;7.046;2023-03-18T08:07:51;5.10;;;3.00;;
5795;SDS011;2924;51.458;7.046;2023-03-18T08:10:17;2.97;;;2.73;;
5795;SDS011;2924;51.458;7.046;2023-03-18T08:12:44;5.10;;;2.83;;
5795;SDS011;2924;51.458;7.046;2023-03-18T08:15:09;3.17;;;2.40;;
5795;SDS011;2924;51.458;7.046;2023-03-18T08:17:36;3.40;;;2.70;;
5795;SDS011;2924;51.458;7.046;2023-03-18T08:20:02;3.47;;;2.77;;
5795;SDS011;2924;51.458;7.046;2023-03-18T08:22:29;4.73;;;3.10;;
5795;SDS011;2924;51.458;7.046;2023-03-18T08:24:54;10.60;;;2.60;;
5795;SDS011;2924;51.458;7.046;2023-03-18T08:27:22;3.87;;;2.30;;
5795;SDS011;2924;51.458;7.046;2023-03-18T08:29:48;4.70;;;2.27;;
5795;SDS011;2924;51.458;7.046;2023-03-18T08:32:14;12.83;;;2.40;;
5795;SDS011;2924;51.458;7.046;2023-03-18T08:34:40;2.80;;;2.20;;
5795;SDS011;2924;51.458;7.046;2023-03-18T08:37:07;3.77;;;2.47;;
5795;SDS011;2924;51.458;7.046;2023-03-18T08:39:33;4.47;;;3.13;;
5795;SDS011;2924;51.458;7.046;2023-03-18T08:41:58;6.23;;;2.60;;
5795;SDS011;2924;51.458;7.046;2023-03-18T08:44:29;6.40;;;2.60;;
5795;SDS011;2924;51.458;7.046;2023-03-18T08:46:55;3.50;;;2.30;;
5795;SDS011;2924;51.458;7.046;2023-03-18T08:49:21;6.07;;;1.97;;
5795;SDS011;2924;51.458;7.046;2023-03-18T08:51:48;3.73;;;2.50;;
5795;SDS011;2924;51.458;7.046;2023-03-18T08:54:14;3.87;;;2.50;;
5795;SDS011;2924;51.458;7.046;2023-03-18T08:56:40;3.87;;;2.53;;
5795;SDS011;2924;51.458;7.046;2023-03-18T08:59:06;5.17;;;2.20;;
5795;SDS011;2924;51.458;7.046;2023-03-18T09:01:32;4.87;;;2.67;;
5795;SDS011;2924;51.458;7.046;2023-03-18T09:03:58;3.67;;;2.47;;
5795;SDS011;2924;51.458;7.046;2023-03-18T09:06:24;5.80;;;2.60;;
5795;SDS011;2924;51.458;7.046;2023-03-18T09:08:51;4.20;;;2.27;;
5795;SDS011;2924;51.458;7.046;2023-03-18T09:11:17;5.90;;;2.30;;
5795;SDS011;2924;51.458;7.046;2023-03-18T09:13:43;4.50;;;1.90;;
5795;SDS011;2924;51.458;7.046;2023-03-18T09:16:08;1.80;;;1.70;;
5795;SDS011;2924;51.458;7.046;2023-03-18T09:18:34;3.10;;;2.37;;
5795;SDS011;2924;51.458;7.046;2023-03-18T09:21:00;3.80;;;1.80;;
5795;SDS011;2924;51.458;7.046;2023-03-18T09:23:27;3.47;;;1.97;;
5795;SDS011;2924;51.458;7.046;2023-03-18T09:25:53;3.50;;;2.30;;
5795;SDS011;2924;51.458;7.046;2023-03-18T09:28:19;1.70;;;1.60;;
5795;SDS011;2924;51.458;7.046;2023-03-18T09:30:45;2.30;;;1.40;;
5795;SDS011;2924;51.458;7.046;2023-03-18T09:33:11;5.20;;;1.97;;
5795;SDS011;2924;51.458;7.046;2023-03-18T09:35:38;3.53;;;1.57;;
5795;SDS011;2924;51.458;7.046;2023-03-18T09:38:04;3.80;;;2.03;;
5795;SDS011;2924;51.458;7.046;2023-03-18T09:40:31;5.63;;;2.40;;
5795;SDS011;2924;51.458;7.046;2023-03-18T09:45:56;10.23;;;2.80;;
5795;SDS011;2924;51.458;7.046;2023-03-18T09:54:29;3.53;;;2.10;;
5795;SDS011;2924;51.458;7.046;2023-03-18T09:57:03;3.77;;;1.50;;
5795;SDS011;2924;51.458;7.046;2023-03-18T09:59:43;1.93;;;1.73;;
5795;SDS011;2924;51.458;7.046;2023-03-18T10:02:36;3.87;;;2.47;;
5795;SDS011;2924;51.458;7.046;2023-03-18T10:05:20;5.60;;;1.77;;
5795;SDS011;2924;51.458;7.046;2023-03-18T10:07:51;2.30;;;1.80;;
5795;SDS011;2924;51.458;7.046;2023-03-18T10:10:21;6.23;;;1.60;;
5795;SDS011;2924;51.458;7.046;2023-03-18T10:15:51;1.77;;;1.67;;
5795;SDS011;2924;51.458;7.046;2023-03-18T10:18:28;3.80;;;1.90;;
5795;SDS011;2924;51.458;7.046;2023-03-18T10:26:29;2.73;;;1.47;;
5795;SDS011;2924;51.458;7.046;2023-03-18T10:37:17;1.10;;;1.10;;
5795;SDS011;2924;51.458;7.046;2023-03-18T10:40:00;2.90;;;1.37;;
5795;SDS011;2924;51.458;7.046;2023-03-18T10:42:27;2.80;;;2.20;;
5795;SDS011;2924;51.458;7.046;2023-03-18T10:44:57;2.90;;;2.27;;
5795;SDS011;2924;51.458;7.046;2023-03-18T10:47:33;5.47;;;2.10;;
5795;SDS011;2924;51.458;7.046;2023-03-18T10:50:22;3.10;;;2.37;;
5795;SDS011;2924;51.458;7.046;2023-03-18T10:55:28;3.07;;;1.40;;
5795;SDS011;2924;51.458;7.046;2023-03-18T10:58:00;1.43;;;1.43;;
5795;SDS011;2924;51.458;7.046;2023-03-18T11:00:37;3.57;;;1.60;;
5795;SDS011;2924;51.458;7.046;2023-03-18T11:03:03;1.50;;;1.40;;
5795;SDS011;2924;51.458;7.046;2023-03-18T11:05:34;2.00;;;1.20;;
5795;SDS011;2924;51.458;7.046;2023-03-18T11:08:04;2.73;;;1.60;;
5795;SDS011;2924;51.458;7.046;2023-03-18T11:10:34;1.90;;;1.80;;
5795;SDS011;2924;51.458;7.046;2023-03-18T11:13:03;5.20;;;2.30;;
5795;SDS011;2924;51.458;7.046;2023-03-18T11:15:36;3.23;;;2.20;;
5795;SDS011;2924;51.458;7.046;2023-03-18T11:18:10;2.43;;;1.73;;
5795;SDS011;2924;51.458;7.046;2023-03-18T11:20:41;2.50;;;1.50;;
5795;SDS011;2924;51.458;7.046;2023-03-18T11:25:43;2.10;;;1.70;;
5795;SDS011;2924;51.458;7.046;2023-03-18T11:28:18;2.80;;;1.83;;
5795;SDS011;2924;51.458;7.046;2023-03-18T11:30:47;2.80;;;1.20;;
5795;SDS011;2924;51.458;7.046;2023-03-18T11:33:16;5.30;;;1.93;;
5795;SDS011;2924;51.458;7.046;2023-03-18T11:38:23;2.70;;;2.10;;
5795;SDS011;2924;51.458;7.046;2023-03-18T11:43:54;5.07;;;1.87;;
5795;SDS011;2924;51.458;7.046;2023-03-18T11:46:48;2.00;;;1.37;;
5795;SDS011;2924;51.458;7.046;2023-03-18T11:49:21;2.30;;;1.57;;
5795;SDS011;2924;51.458;7.046;2023-03-18T11:51:53;4.60;;;1.70;;
5795;SDS011;2924;51.458;7.046;2023-03-18T12:05:49;5.07;;;1.53;;
5795;SDS011;2924;51.458;7.046;2023-03-18T12:19:38;1.37;;;1.27;;
5795;SDS011;2924;51.458;7.046;2023-03-18T12:22:24;2.93;;;1.77;;
5795;SDS011;2924;51.458;7.046;2023-03-18T12:43:48;7.67;;;1.30;;
5795;SDS011;2924;51.458;7.046;2023-03-18T12:46:27;5.20;;;1.50;;
5795;SDS011;2924;51.458;7.046;2023-03-18T12:49:20;2.20;;;1.60;;
5795;SDS011;2924;51.458;7.046;2023-03-18T12:54:32;1.20;;;1.10;;
5795;SDS011;2924;51.458;7.046;2023-03-18T12:57:06;3.93;;;1.70;;
5795;SDS011;2924;51.458;7.046;2023-03-18T12:59:46;3.57;;;1.53;;
5795;SDS011;2924;51.458;7.046;2023-03-18T13:05:26;3.80;;;1.53;;
5795;SDS011;2924;51.458;7.046;2023-03-18T13:11:04;4.13;;;1.80;;
5795;SDS011;2924;51.458;7.046;2023-03-18T13:13:38;3.67;;;1.30;;
5795;SDS011;2924;51.458;7.046;2023-03-18T13:16:09;2.43;;;1.13;;
5795;SDS011;2924;51.458;7.046;2023-03-18T13:18:38;2.07;;;1.40;;
5795;SDS011;2924;51.458;7.046;2023-03-18T13:21:11;3.33;;;1.60;;
5795;SDS011;2924;51.458;7.046;2023-03-18T13:23:50;1.27;;;1.07;;
5795;SDS011;2924;51.458;7.046;2023-03-18T13:37:12;3.17;;;2.30;;
5795;SDS011;2924;51.458;7.046;2023-03-18T13:42:56;4.57;;;1.40;;
5795;SDS011;2924;51.458;7.046;2023-03-18T13:45:58;1.73;;;1.63;;
5795;SDS011;2924;51.458;7.046;2023-03-18T13:48:28;2.10;;;1.70;;
5795;SDS011;2924;51.458;7.046;2023-03-18T13:50:56;4.83;;;1.63;;
5795;SDS011;2924;51.458;7.046;2023-03-18T13:53:33;3.90;;;1.47;;
5795;SDS011;2924;51.458;7.046;2023-03-18T13:56:06;1.40;;;1.30;;
5795;SDS011;2924;51.458;7.046;2023-03-18T13:58:58;2.43;;;1.40;;
5795;SDS011;2924;51.458;7.046;2023-03-18T14:01:33;1.17;;;1.07;;
5795;SDS011;2924;51.458;7.046;2023-03-18T14:04:18;1.57;;;1.20;;
5795;SDS011;2924;51.458;7.046;2023-03-18T14:06:56;1.73;;;1.30;;
5795;SDS011;2924;51.458;7.046;2023-03-18T14:09:51;2.97;;;1.60;;
5795;SDS011;2924;51.458;7.046;2023-03-18T14:12:18;1.77;;;1.57;;
5795;SDS011;2924;51.458;7.046;2023-03-18T14:22:55;1.90;;;1.30;;
5795;SDS011;2924;51.458;7.046;2023-03-18T14:25:43;1.30;;;1.20;;
5795;SDS011;2924;51.458;7.046;2023-03-18T14:28:19;3.80;;;1.20;;
5795;SDS011;2924;51.458;7.046;2023-03-18T14:30:53;4.57;;;1.70;;
5795;SDS011;2924;51.458;7.046;2023-03-18T14:33:50;3.77;;;1.57;;
5795;SDS011;2924;51.458;7.046;2023-03-18T14:37:13;3.50;;;1.80;;
5795;SDS011;2924;51.458;7.046;2023-03-18T14:42:01;3.30;;;1.60;;
5795;SDS011;2924;51.458;7.046;2023-03-18T14:44:34;6.90;;;2.00;;
5795;SDS011;2924;51.458;7.046;2023-03-18T14:47:17;7.93;;;2.33;;
5795;SDS011;2924;51.458;7.046;2023-03-18T14:49:52;10.93;;;2.17;;
5795;SDS011;2924;51.458;7.046;2023-03-18T14:52:37;7.10;;;2.20;;
5795;SDS011;2924;51.458;7.046;2023-03-18T14:55:28;3.13;;;1.87;;
5795;SDS011;2924;51.458;7.046;2023-03-18T14:57:54;2.50;;;1.30;;
5795;SDS011;2924;51.458;7.046;2023-03-18T15:00:21;7.00;;;1.57;;
5795;SDS011;2924;51.458;7.046;2023-03-18T15:02:50;4.43;;;1.40;;
5795;SDS011;2924;51.458;7.046;2023-03-18T15:05:29;3.50;;;1.00;;
5795;SDS011;2924;51.458;7.046;2023-03-18T15:08:00;2.90;;;0.97;;
5795;SDS011;2924;51.458;7.046;2023-03-18T15:10:30;1.37;;;1.20;;
5795;SDS011;2924;51.458;7.046;2023-03-18T15:13:00;3.07;;;0.90;;
5795;SDS011;2924;51.458;7.046;2023-03-18T15:15:32;5.00;;;1.63;;
5795;SDS011;2924;51.458;7.046;2023-03-18T15:18:35;4.57;;;1.10;;
5795;SDS011;2924;51.458;7.046;2023-03-18T15:23:38;3.83;;;1.30;;
5795;SDS011;2924;51.458;7.046;2023-03-18T15:26:17;2.57;;;1.37;;
5795;SDS011;2924;51.458;7.046;2023-03-18T15:28:46;2.60;;;0.87;;
5795;SDS011;2924;51.458;7.046;2023-03-18T15:31:21;0.80;;;0.80;;
5795;SDS011;2924;51.458;7.046;2023-03-18T15:33:55;3.80;;;1.00;;
5795;SDS011;2924;51.458;7.046;2023-03-18T15:36:27;5.47;;;1.23;;
5795;SDS011;2924;51.458;7.046;2023-03-18T15:38:53;1.90;;;0.87;;
5795;SDS011;2924;51.458;7.046;2023-03-18T15:41:20;2.27;;;1.30;;
5795;SDS011;2924;51.458;7.046;2023-03-18T15:43:49;1.37;;;1.27;;
5795;SDS011;2924;51.458;7.046;2023-03-18T15:48:58;3.17;;;2.10;;
5795;SDS011;2924;51.458;7.046;2023-03-18T15:51:31;3.73;;;2.60;;
5795;SDS011;2924;51.458;7.046;2023-03-18T15:56:46;1.90;;;1.80;;
5795;SDS011;2924;51.458;7.046;2023-03-18T15:59:18;4.97;;;1.60;;
5795;SDS011;2924;51.458;7.046;2023-03-18T16:01:58;14.20;;;1.23;;
5795;SDS011;2924;51.458;7.046;2023-03-18T16:04:28;2.30;;;1.70;;
5795;SDS011;2924;51.458;7.046;2023-03-18T16:06:56;1.83;;;1.50;;
5795;SDS011;2924;51.458;7.046;2023-03-18T16:09:23;3.83;;;1.60;;
5795;SDS011;2924;51.458;7.046;2023-03-18T16:11:53;4.07;;;2.27;;
5795;SDS011;2924;51.458;7.046;2023-03-18T16:14:24;3.63;;;1.97;;
5795;SDS011;2924;51.458;7.046;2023-03-18T16:16:59;2.00;;;1.43;;
5795;SDS011;2924;51.458;7.046;2023-03-18T16:19:25;4.10;;;1.97;;
5795;SDS011;2924;51.458;7.046;2023-03-18T16:21:53;4.27;;;1.77;;
5795;SDS011;2924;51.458;7.046;2023-03-18T16:24:21;5.50;;;1.70;;
5795;SDS011;2924;51.458;7.046;2023-03-18T16:26:47;2.70;;;2.27;;
5795;SDS011;2924;51.458;7.046;2023-03-18T16:29:14;1.47;;;1.37;;
5795;SDS011;2924;51.458;7.046;2023-03-18T16:31:43;2.47;;;2.27;;
5795;SDS011;2924;51.458;7.046;2023-03-18T16:34:14;1.33;;;1.10;;
5795;SDS011;2924;51.458;7.046;2023-03-18T16:36:42;9.93;;;1.30;;
5795;SDS011;2924;51.458;7.046;2023-03-18T16:39:13;1.90;;;1.37;;
5795;SDS011;2924;51.458;7.046;2023-03-18T16:41:40;3.37;;;1.77;;
5795;SDS011;2924;51.458;7.046;2023-03-18T16:44:18;2.70;;;1.53;;
5795;SDS011;2924;51.458;7.046;2023-03-18T16:46:47;2.70;;;2.20;;
5795;SDS011;2924;51.458;7.046;2023-03-18T16:49:17;4.50;;;3.13;;
5795;SDS011;2924;51.458;7.046;2023-03-18T16:51:46;7.23;;;2.03;;
5795;SDS011;2924;51.458;7.046;2023-03-18T16:56:50;5.63;;;3.47;;
5795;SDS011;2924;51.458;7.046;2023-03-18T16:59:18;7.13;;;3.77;;
5795;SDS011;2924;51.458;7.046;2023-03-18T17:01:47;4.23;;;3.03;;
5795;SDS011;2924;51.458;7.046;2023-03-18T17:06:46;2.20;;;1.60;;
5795;SDS011;2924;51.458;7.046;2023-03-18T17:09:11;7.00;;;2.33;;
5795;SDS011;2924;51.458;7.046;2023-03-18T17:11:38;1.70;;;1.60;;
5795;SDS011;2924;51.458;7.046;2023-03-18T17:14:04;3.10;;;2.53;;
5795;SDS011;2924;51.458;7.046;2023-03-18T17:16:32;3.60;;;2.53;;
5795;SDS011;2924;51.458;7.046;2023-03-18T17:18:59;3.43;;;2.90;;
5795;SDS011;2924;51.458;7.046;2023-03-18T17:21:25;3.00;;;2.70;;
5795;SDS011;2924;51.458;7.046;2023-03-18T17:23:52;6.37;;;4.80;;
5795;SDS011;2924;51.458;7.046;2023-03-18T17:26:19;7.20;;;3.97;;
5795;SDS011;2924;51.458;7.046;2023-03-18T17:28:46;7.77;;;4.73;;
5795;SDS011;2924;51.458;7.046;2023-03-18T17:31:13;4.53;;;4.10;;
5795;SDS011;2924;51.458;7.046;2023-03-18T17:33:40;5.33;;;3.73;;
5795;SDS011;2924;51.458;7.046;2023-03-18T17:36:06;8.90;;;3.83;;
5795;SDS011;2924;51.458;7.046;2023-03-18T17:38:34;3.60;;;3.40;;
5795;SDS011;2924;51.458;7.046;2023-03-18T17:41:01;6.50;;;3.90;;
5795;SDS011;2924;51.458;7.046;2023-03-18T17:43:32;9.20;;;5.60;;
5795;SDS011;2924;51.458;7.046;2023-03-18T17:46:01;8.10;;;5.60;;